Decoded Metar for MDSD (SANTO DOMINGO in DOMINICAN REPUBLIC) (IATA:SDQ) | Meteo·Mobile Aviation Weather
aviador You're here:

MDSD Decoded Metar

SANTO DOMINGO in DOMINICAN REPUBLIC
Report Time2018-09-19 14:00:00
UTC Time2018-09-19 14:26:10
Flight Rules vfr VFR
Wind100° at 07 kt
W.Decomp.*RWY 17: 3.6 kt HW 6 kt LCW
W.Rank100° ranks 19
Current wind is above 100° avg. (6.7)
Visibility9999 m
Phenomena:N/A
Clouds:Scattered 020 Hf
Expected CloudBase > 800 ft AGL from Temp-Dew spread
CeilingNone
Temp28°C (ISA +13)
Dew Point26°C (89% RH)
Heat Index33.6°C
QNH1015 hPa
Density Alt1,939 ft
Elevation59 ft
Report Wrong Elevation
Raw Report
MDSD 191400Z 10007KT 9999 SCT020 28/26 Q1015=

Extra information for MDSD:More info

Metar Taf Metar & Taf Last 4 Metars F.Rules Stats Wind Profile Meteogram Temp Stats Airport Information Weather charts Add Link Nearby VenuesMetar ALERT Operation Metar Decoded Social comments